createdAt,value
2022-11-18T00:00:57.710Z,17.65
2022-11-18T00:03:25.100Z,17.37
2022-11-18T00:05:52.911Z,17.55
2022-11-18T00:08:20.006Z,17.55
2022-11-18T00:10:47.354Z,17.44
2022-11-18T00:13:33.183Z,17.54
2022-11-18T00:16:01.720Z,17.51
2022-11-18T00:18:28.836Z,17.37
2022-11-18T00:20:55.941Z,17.41
2022-11-18T00:23:23.310Z,17.44
2022-11-18T00:25:50.449Z,17.47
2022-11-18T00:28:17.536Z,17.42
2022-11-18T00:30:44.919Z,17.40
2022-11-18T00:33:12.034Z,17.32
2022-11-18T00:35:39.163Z,17.10
2022-11-18T00:38:06.559Z,17.20
2022-11-18T00:40:33.702Z,17.16
2022-11-18T00:43:00.844Z,17.13
2022-11-18T00:45:29.230Z,16.91
2022-11-18T00:47:56.643Z,17.01
2022-11-18T00:50:24.376Z,17.03
2022-11-18T00:52:51.728Z,16.95
2022-11-18T00:55:18.845Z,16.80
2022-11-18T00:57:45.968Z,16.88
2022-11-18T01:00:13.442Z,16.73
2022-11-18T01:02:40.677Z,16.78
2022-11-18T01:05:07.899Z,16.43
2022-11-18T01:07:35.337Z,16.67
2022-11-18T01:10:02.499Z,16.74
2022-11-18T01:12:53.955Z,16.76
2022-11-18T01:15:21.771Z,16.50
2022-11-18T01:17:48.888Z,16.15
2022-11-18T01:20:16.055Z,16.01
2022-11-18T01:22:43.453Z,15.90
2022-11-18T01:25:10.590Z,16.14
2022-11-18T01:27:37.698Z,16.32
2022-11-18T01:30:05.292Z,16.23
2022-11-18T01:32:32.429Z,16.39
2022-11-18T01:34:59.547Z,16.45
2022-11-18T01:37:26.912Z,16.61
2022-11-18T01:39:54.017Z,16.16
2022-11-18T01:42:21.110Z,15.83
2022-11-18T01:45:05.243Z,15.81
2022-11-18T01:47:33.238Z,16.09
2022-11-18T01:50:00.619Z,16.10
2022-11-18T01:52:27.722Z,16.26
2022-11-18T01:54:55.944Z,16.30
2022-11-18T01:57:23.426Z,16.37
2022-11-18T01:59:50.737Z,16.25
2022-11-18T02:02:17.855Z,16.51
2022-11-18T02:04:45.862Z,16.49
2022-11-18T02:07:13.333Z,16.57
2022-11-18T02:09:40.498Z,16.58
2022-11-18T02:12:07.662Z,16.42
2022-11-18T02:14:38.952Z,16.27
2022-11-18T02:17:15.417Z,16.40
2022-11-18T02:19:49.058Z,16.63
2022-11-18T02:22:28.177Z,16.38
2022-11-18T02:25:14.646Z,16.55
2022-11-18T02:27:50.726Z,16.10
2022-11-18T02:30:18.117Z,16.30
2022-11-18T02:32:49.234Z,16.03
2022-11-18T02:35:19.175Z,16.23
2022-11-18T02:37:55.615Z,16.49
2022-11-18T02:40:25.245Z,16.68
2022-11-18T02:42:54.657Z,15.12
2022-11-18T02:45:22.975Z,15.99
2022-11-18T02:47:50.080Z,16.33
2022-11-18T02:50:18.429Z,15.79
2022-11-18T02:52:45.601Z,15.55
2022-11-18T02:55:12.946Z,16.12
2022-11-18T02:57:40.329Z,16.30
2022-11-18T03:00:07.747Z,16.38
2022-11-18T03:02:41.908Z,16.47
2022-11-18T03:05:10.708Z,16.52
2022-11-18T03:07:37.870Z,16.58
2022-11-18T03:10:05.092Z,16.75
2022-11-18T03:12:38.632Z,16.77
2022-11-18T03:15:08.540Z,16.72
2022-11-18T03:17:42.034Z,16.66
2022-11-18T03:20:20.118Z,16.86
2022-11-18T03:22:59.623Z,17.05
2022-11-18T03:25:53.018Z,16.68
2022-11-18T03:28:20.302Z,16.89
2022-11-18T03:31:10.541Z,17.16
2022-11-18T03:33:42.695Z,17.26
2022-11-18T03:36:10.097Z,17.15
2022-11-18T03:38:38.348Z,16.65
2022-11-18T03:41:06.483Z,16.82
2022-11-18T03:43:34.964Z,17.12
2022-11-18T03:46:09.327Z,17.30
2022-11-18T03:48:38.708Z,17.37
2022-11-18T03:51:07.074Z,17.24
2022-11-18T03:53:39.853Z,17.32
2022-11-18T03:56:15.782Z,16.44
2022-11-18T03:58:50.064Z,16.98
2022-11-18T04:01:43.887Z,17.04
2022-11-18T04:04:11.525Z,16.74
2022-11-18T04:06:41.768Z,16.14
2022-11-18T04:09:13.862Z,16.27
2022-11-18T04:12:01.608Z,16.24
2022-11-18T04:14:29.192Z,15.50
2022-11-18T04:16:56.628Z,15.92
2022-11-18T04:19:23.910Z,16.03
2022-11-18T04:21:51.198Z,16.17
2022-11-18T04:24:18.617Z,16.72
2022-11-18T04:26:45.815Z,16.91
2022-11-18T04:29:12.941Z,16.84
2022-11-18T04:31:40.318Z,15.69
2022-11-18T04:34:07.464Z,15.35
2022-11-18T04:36:34.572Z,15.66
2022-11-18T04:39:01.942Z,15.94
2022-11-18T04:41:47.496Z,16.33
2022-11-18T04:44:14.882Z,16.43
2022-11-18T04:46:42.271Z,16.77
2022-11-18T04:49:09.740Z,16.72
2022-11-18T04:51:37.114Z,16.79
2022-11-18T04:54:04.402Z,16.44
2022-11-18T04:56:31.676Z,16.90
2022-11-18T04:59:00.121Z,16.86
2022-11-18T05:01:27.583Z,16.86
2022-11-18T05:03:54.854Z,17.01
2022-11-18T05:06:22.547Z,17.11
2022-11-18T05:08:49.795Z,17.04
2022-11-18T05:11:35.701Z,16.08
2022-11-18T05:14:03.067Z,16.39
2022-11-18T05:16:30.163Z,16.05
2022-11-18T05:18:57.243Z,16.12
2022-11-18T05:21:24.682Z,16.26
2022-11-18T05:23:51.778Z,16.07
2022-11-18T05:26:18.879Z,16.24
2022-11-18T05:28:46.240Z,16.17
2022-11-18T05:31:14.635Z,16.50
2022-11-18T05:33:42.124Z,16.74
2022-11-18T05:36:10.513Z,16.81
2022-11-18T05:38:37.617Z,16.33
2022-11-18T05:41:04.962Z,16.85
2022-11-18T05:43:32.563Z,16.16
2022-11-18T05:45:59.991Z,16.50
2022-11-18T05:48:27.126Z,16.81
2022-11-18T05:50:55.028Z,16.61
2022-11-18T05:53:22.900Z,15.09
2022-11-18T05:56:07.659Z,14.07
2022-11-18T05:58:35.035Z,15.07
2022-11-18T06:01:03.536Z,14.44
2022-11-18T06:03:31.551Z,13.22
2022-11-18T06:05:59.589Z,14.30
2022-11-18T06:08:27.320Z,14.30
2022-11-18T06:10:54.733Z,14.91
2022-11-18T06:13:26.211Z,14.64
2022-11-18T06:15:53.325Z,14.92
2022-11-18T06:18:20.680Z,15.55
2022-11-18T06:20:47.798Z,15.51
2022-11-18T06:23:14.915Z,15.64
2022-11-18T06:25:42.273Z,14.99
2022-11-18T06:28:09.762Z,14.69
2022-11-18T06:30:36.880Z,15.04
2022-11-18T06:33:04.252Z,14.59
2022-11-18T06:35:31.406Z,14.64
2022-11-18T06:37:58.523Z,15.49
2022-11-18T06:40:29.257Z,14.73
2022-11-18T06:43:17.381Z,14.29
2022-11-18T06:46:08.950Z,14.96
2022-11-18T06:48:36.971Z,15.23
2022-11-18T06:51:05.154Z,14.59
2022-11-18T06:53:33.171Z,14.84
2022-11-18T06:56:07.134Z,15.17
2022-11-18T06:58:34.593Z,14.15
2022-11-18T07:01:11.748Z,14.79
2022-11-18T07:03:40.103Z,14.18
2022-11-18T07:06:07.697Z,15.24
2022-11-18T07:08:35.928Z,14.89
2022-11-18T07:11:05.346Z,14.09
2022-11-18T07:13:32.792Z,14.09
2022-11-18T07:16:07.046Z,13.94
2022-11-18T07:18:35.065Z,14.16
2022-11-18T07:21:03.001Z,13.42
2022-11-18T07:23:31.168Z,14.44
2022-11-18T07:25:58.651Z,13.82
2022-11-18T07:28:25.940Z,13.59
2022-11-18T07:30:53.056Z,13.12
2022-11-18T07:33:20.459Z,13.78
2022-11-18T07:35:47.577Z,12.97
2022-11-18T07:38:14.702Z,12.99
2022-11-18T07:40:42.066Z,14.03
2022-11-18T07:43:09.299Z,13.63
2022-11-18T07:45:36.573Z,14.40
2022-11-18T07:48:03.985Z,13.92
2022-11-18T07:50:31.115Z,14.26
2022-11-18T07:52:58.271Z,13.97
2022-11-18T07:55:30.829Z,14.31
2022-11-18T07:57:59.193Z,14.05
2022-11-18T08:00:26.585Z,14.30
2022-11-18T08:02:53.965Z,13.46
2022-11-18T08:05:21.158Z,13.40
2022-11-18T08:07:48.344Z,13.04
2022-11-18T08:10:15.900Z,12.32
2022-11-18T08:12:43.022Z,13.13
2022-11-18T08:15:10.301Z,12.74
2022-11-18T08:17:37.690Z,13.63
2022-11-18T08:20:04.921Z,13.30
2022-11-18T08:22:32.042Z,12.75
2022-11-18T08:24:59.440Z,12.41
2022-11-18T08:27:26.549Z,13.55
2022-11-18T08:29:53.640Z,13.10
2022-11-18T08:32:21.051Z,13.72
2022-11-18T08:34:48.161Z,13.83
2022-11-18T08:37:15.273Z,13.67
2022-11-18T08:39:42.632Z,13.55
2022-11-18T08:42:10.025Z,13.39
2022-11-18T08:44:37.131Z,14.15
2022-11-18T08:47:04.572Z,14.23
2022-11-18T08:49:32.655Z,13.60
2022-11-18T08:52:00.763Z,13.42
2022-11-18T08:54:28.143Z,14.18
2022-11-18T08:56:55.756Z,14.59
2022-11-18T08:59:23.890Z,14.54
2022-11-18T09:01:51.375Z,14.73
2022-11-18T09:04:18.560Z,14.33
2022-11-18T09:06:45.680Z,13.38
2022-11-18T09:09:13.054Z,12.87
2022-11-18T09:11:40.280Z,12.68
2022-11-18T09:15:11.938Z,13.27
2022-11-18T09:16:54.780Z,14.15
2022-11-18T09:19:46.049Z,13.38
2022-11-18T09:22:09.411Z,12.69
2022-11-18T09:24:37.352Z,12.85
2022-11-18T09:27:05.530Z,13.21
2022-11-18T09:29:32.904Z,12.65
2022-11-18T09:32:02.076Z,13.51
2022-11-18T09:34:29.371Z,13.17
2022-11-18T09:36:56.926Z,12.30
2022-11-18T09:39:24.696Z,13.10
2022-11-18T09:41:54.080Z,13.10
2022-11-18T09:44:21.400Z,13.34
2022-11-18T09:46:48.434Z,13.19
2022-11-18T09:49:16.794Z,13.10
2022-11-18T09:51:48.115Z,13.95
2022-11-18T09:54:25.829Z,13.68
2022-11-18T09:56:53.680Z,13.65
2022-11-18T09:59:21.834Z,12.31
2022-11-18T10:01:49.246Z,12.25
2022-11-18T10:04:17.208Z,12.11
2022-11-18T10:06:45.047Z,12.53
2022-11-18T10:09:21.149Z,12.49
2022-11-18T10:12:00.549Z,13.67
2022-11-18T10:14:27.603Z,13.02
2022-11-18T10:16:57.942Z,12.45
2022-11-18T10:19:31.585Z,12.54
2022-11-18T10:22:20.975Z,12.94
2022-11-18T10:24:50.488Z,12.66
2022-11-18T10:27:17.946Z,12.93
2022-11-18T10:29:46.029Z,12.80
2022-11-18T10:32:16.520Z,12.30
2022-11-18T10:34:51.644Z,12.69
2022-11-18T10:37:34.500Z,12.96
2022-11-18T10:40:10.500Z,13.14
2022-11-18T10:42:41.630Z,12.23
2022-11-18T10:45:25.396Z,12.75
2022-11-18T10:47:58.726Z,12.76
2022-11-18T10:50:28.637Z,12.25
2022-11-18T10:52:56.007Z,12.65
2022-11-18T10:55:23.900Z,12.83
2022-11-18T10:57:52.693Z,12.93
2022-11-18T11:00:32.220Z,13.86
2022-11-18T11:02:59.337Z,13.02
2022-11-18T11:05:26.815Z,13.71
2022-11-18T11:08:34.556Z,14.23
2022-11-18T11:10:58.200Z,14.76
2022-11-18T11:13:26.383Z,14.70
2022-11-18T11:15:54.256Z,14.71
2022-11-18T11:18:40.454Z,14.99
2022-11-18T11:21:17.737Z,15.13
2022-11-18T11:23:45.124Z,15.65
2022-11-18T11:29:20.637Z,15.80
2022-11-18T11:32:07.307Z,15.34
2022-11-18T11:34:50.432Z,15.89
2022-11-18T11:37:35.458Z,15.06
2022-11-18T11:40:24.292Z,15.61
2022-11-18T11:43:10.304Z,14.83
2022-11-18T11:45:57.631Z,15.08
2022-11-18T11:48:35.649Z,14.60
2022-11-18T11:51:06.349Z,15.44
2022-11-18T11:54:01.018Z,15.17
2022-11-18T11:56:30.933Z,14.50
2022-11-18T11:58:58.232Z,15.16
2022-11-18T12:01:34.304Z,15.04
2022-11-18T12:04:15.258Z,14.52
2022-11-18T12:06:44.384Z,14.81
2022-11-18T12:09:13.375Z,14.52
2022-11-18T12:11:41.498Z,14.35
2022-11-18T12:14:27.397Z,14.44
2022-11-18T12:17:07.079Z,15.02
2022-11-18T12:19:36.985Z,15.55
2022-11-18T12:22:05.312Z,15.04
2022-11-18T12:24:34.283Z,14.90
2022-11-18T12:27:05.619Z,14.88
2022-11-18T12:29:36.142Z,15.45
2022-11-18T12:32:03.729Z,16.02
2022-11-18T12:34:33.853Z,15.82
2022-11-18T12:37:19.533Z,16.22
2022-11-18T12:39:47.962Z,15.22
2022-11-18T12:42:53.087Z,15.01
2022-11-18T12:45:38.653Z,15.31
2022-11-18T12:48:41.471Z,15.29
2022-11-18T12:51:11.394Z,14.68
2022-11-18T12:53:39.460Z,14.75
2022-11-18T12:56:19.157Z,13.94
2022-11-18T12:58:53.738Z,15.27
2022-11-18T13:01:22.397Z,15.53
2022-11-18T13:03:50.060Z,15.47
2022-11-18T13:06:20.643Z,16.05
2022-11-18T13:08:51.707Z,16.13
2022-11-18T13:11:37.907Z,16.21
2022-11-18T13:14:24.085Z,16.53
2022-11-18T13:17:09.975Z,16.77
2022-11-18T13:19:37.083Z,16.39
2022-11-18T13:22:23.339Z,16.51
2022-11-18T13:24:51.366Z,16.45
2022-11-18T13:27:22.382Z,15.97
2022-11-18T13:29:55.600Z,16.25
2022-11-18T13:32:24.135Z,16.28
2022-11-18T13:34:52.055Z,16.34
2022-11-18T13:37:22.906Z,16.02
2022-11-18T13:39:50.402Z,15.95
2022-11-18T13:42:24.481Z,16.11
2022-11-18T13:44:52.845Z,15.90
2022-11-18T13:47:22.654Z,16.05
2022-11-18T13:50:02.883Z,16.40
2022-11-18T13:52:31.946Z,16.53
2022-11-18T13:55:00.167Z,16.33
2022-11-18T13:57:28.209Z,15.81
2022-11-18T13:59:55.715Z,15.72
2022-11-18T14:02:22.822Z,15.85
2022-11-18T14:04:52.051Z,15.60
2022-11-18T14:07:28.032Z,15.53
2022-11-18T14:09:58.563Z,15.84
2022-11-18T14:15:15.059Z,15.72
2022-11-18T14:17:52.856Z,15.73
2022-11-18T14:20:20.271Z,15.49
2022-11-18T14:22:51.275Z,15.79
2022-11-18T14:25:26.121Z,15.88
2022-11-18T14:27:57.184Z,15.53
2022-11-18T14:30:28.478Z,15.88
2022-11-18T14:33:07.893Z,15.69
2022-11-18T14:35:35.238Z,15.33
2022-11-18T14:40:54.257Z,15.17
2022-11-18T14:43:21.761Z,15.73
2022-11-18T14:45:48.874Z,16.28
2022-11-18T14:48:15.988Z,16.45
2022-11-18T14:50:43.350Z,16.18
2022-11-18T14:53:11.534Z,15.99
2022-11-18T14:55:39.021Z,14.84
2022-11-18T14:58:08.734Z,15.79
2022-11-18T15:00:36.022Z,16.26
2022-11-18T15:03:03.372Z,15.77
2022-11-18T15:05:31.038Z,15.82
2022-11-18T15:07:58.154Z,16.30
2022-11-18T15:10:25.255Z,16.06
2022-11-18T15:12:52.632Z,16.50
2022-11-18T15:15:19.736Z,16.63
2022-11-18T15:17:49.717Z,16.67
2022-11-18T15:20:21.907Z,16.44
2022-11-18T15:22:49.057Z,16.47
2022-11-18T15:25:16.177Z,16.48
2022-11-18T15:27:43.545Z,16.38
2022-11-18T15:30:13.015Z,16.32
2022-11-18T15:32:40.645Z,16.88
2022-11-18T15:35:08.654Z,16.68
2022-11-18T15:37:35.793Z,16.37
2022-11-18T15:40:02.930Z,16.30
2022-11-18T15:42:30.369Z,16.64
2022-11-18T15:44:57.492Z,16.02
2022-11-18T15:47:25.220Z,15.24
2022-11-18T15:49:52.611Z,15.64
2022-11-18T15:52:19.710Z,16.26
2022-11-18T15:54:46.858Z,16.10
2022-11-18T15:57:15.254Z,16.17
2022-11-18T15:59:42.355Z,16.00
2022-11-18T16:02:10.156Z,15.70
2022-11-18T16:04:37.827Z,15.61
2022-11-18T16:07:05.092Z,15.29
2022-11-18T16:09:51.141Z,16.10
2022-11-18T16:12:37.138Z,16.56
2022-11-18T16:15:23.112Z,16.58
2022-11-18T16:17:50.481Z,16.80
2022-11-18T16:20:17.599Z,16.68
2022-11-18T16:22:44.723Z,16.94
2022-11-18T16:25:12.216Z,17.01
2022-11-18T16:27:39.620Z,17.10
2022-11-18T16:30:06.986Z,17.12
2022-11-18T16:32:34.393Z,17.17
2022-11-18T16:35:01.873Z,16.88
2022-11-18T16:37:30.281Z,17.08
2022-11-18T16:39:57.679Z,16.96
2022-11-18T16:42:24.793Z,17.18
2022-11-18T16:44:51.910Z,17.36
2022-11-18T16:47:19.324Z,17.24
2022-11-18T16:49:47.032Z,17.41
2022-11-18T16:52:14.479Z,17.11
2022-11-18T16:54:45.609Z,17.32
2022-11-18T16:57:13.167Z,17.74
2022-11-18T16:59:40.850Z,17.13
2022-11-18T17:02:10.363Z,17.32
2022-11-18T17:04:38.756Z,17.22
2022-11-18T17:07:05.952Z,16.95
2022-11-18T17:09:33.356Z,17.41
2022-11-18T17:12:00.488Z,17.17
2022-11-18T17:14:27.927Z,17.22
2022-11-18T17:16:55.531Z,17.30
2022-11-18T17:19:23.768Z,16.89
2022-11-18T17:21:51.985Z,17.11
2022-11-18T17:24:20.856Z,16.62
2022-11-18T17:26:52.416Z,16.07
2022-11-18T17:29:20.854Z,15.91
2022-11-18T17:31:49.395Z,15.37
2022-11-18T17:34:17.231Z,15.66
2022-11-18T17:36:45.497Z,16.21
2022-11-18T17:39:13.748Z,15.07
2022-11-18T17:41:59.412Z,15.04
2022-11-18T17:44:27.375Z,14.36
2022-11-18T17:46:54.756Z,14.75
2022-11-18T17:49:24.893Z,14.07
2022-11-18T17:51:52.292Z,14.26
2022-11-18T17:54:21.576Z,14.43
2022-11-18T17:56:49.960Z,13.53
2022-11-18T17:59:17.687Z,13.95
2022-11-18T18:01:46.418Z,14.08
2022-11-18T18:04:14.655Z,13.98
2022-11-18T18:06:42.553Z,14.60
2022-11-18T18:09:10.557Z,13.79
2022-11-18T18:11:38.413Z,13.84
2022-11-18T18:14:13.197Z,13.98
2022-11-18T18:16:44.182Z,13.53
2022-11-18T18:19:12.469Z,13.48
2022-11-18T18:21:42.173Z,13.93
2022-11-18T18:24:10.386Z,14.18
2022-11-18T18:26:38.209Z,13.56
2022-11-18T18:29:05.528Z,14.40
2022-11-18T18:31:34.048Z,14.66
2022-11-18T18:34:01.455Z,14.82
2022-11-18T18:36:28.983Z,14.27
2022-11-18T18:39:00.188Z,14.60
2022-11-18T18:41:27.844Z,14.53
2022-11-18T18:43:56.541Z,14.52
2022-11-18T18:46:32.071Z,14.91
2022-11-18T18:49:01.948Z,14.38
2022-11-18T18:51:31.561Z,15.21
2022-11-18T18:53:58.819Z,15.10
2022-11-18T18:56:26.204Z,15.19
2022-11-18T18:58:56.612Z,15.68
2022-11-18T19:01:29.730Z,15.48
2022-11-18T19:03:58.213Z,15.71
2022-11-18T19:06:51.995Z,15.67
2022-11-18T19:09:14.512Z,16.05
2022-11-18T19:12:01.092Z,14.69
2022-11-18T19:14:28.730Z,14.45
2022-11-18T19:16:56.018Z,14.21
2022-11-18T19:19:43.560Z,14.11
2022-11-18T19:22:12.328Z,14.36
2022-11-18T19:24:49.670Z,14.47
2022-11-18T19:27:19.035Z,14.32
2022-11-18T19:29:46.414Z,14.51
2022-11-18T19:32:13.671Z,14.86
2022-11-18T19:34:41.645Z,14.76
2022-11-18T19:37:09.329Z,14.06
2022-11-18T19:39:38.829Z,14.72
2022-11-18T19:42:06.683Z,14.73
2022-11-18T19:44:35.202Z,14.76
2022-11-18T19:47:02.799Z,14.58
2022-11-18T19:49:31.855Z,14.12
2022-11-18T19:51:59.345Z,14.35
2022-11-18T19:54:26.969Z,14.80
2022-11-18T19:56:54.895Z,14.65
2022-11-18T19:59:22.609Z,13.76
2022-11-18T20:01:50.277Z,13.63
2022-11-18T20:04:18.229Z,12.79
2022-11-18T20:06:47.143Z,13.18
2022-11-18T20:09:14.645Z,13.27
2022-11-18T20:11:43.560Z,13.82
2022-11-18T20:14:11.673Z,13.28
2022-11-18T20:16:39.860Z,12.58
2022-11-18T20:19:10.699Z,11.92
2022-11-18T20:21:39.428Z,12.81
2022-11-18T20:24:07.946Z,13.05
2022-11-18T20:26:37.009Z,11.93
2022-11-18T20:29:04.542Z,12.40
2022-11-18T20:31:34.166Z,11.52
2022-11-18T20:34:02.465Z,11.88
2022-11-18T20:36:31.860Z,12.72
2022-11-18T20:39:00.758Z,11.52
2022-11-18T20:41:30.567Z,12.16
2022-11-18T20:43:58.230Z,12.34
2022-11-18T20:46:26.151Z,11.66
2022-11-18T20:48:53.982Z,11.77
2022-11-18T20:51:23.393Z,11.97
2022-11-18T20:53:51.282Z,11.55
2022-11-18T20:56:20.096Z,12.02
2022-11-18T20:58:51.628Z,11.61
2022-11-18T21:01:20.548Z,12.10
2022-11-18T21:03:54.923Z,11.06
2022-11-18T21:06:23.546Z,11.75
2022-11-18T21:08:55.914Z,11.39
2022-11-18T21:11:24.229Z,11.93
2022-11-18T21:14:10.493Z,11.96
2022-11-18T21:16:38.350Z,11.42
2022-11-18T21:19:06.016Z,11.60
2022-11-18T21:21:45.768Z,10.35
2022-11-18T21:24:14.785Z,11.16
2022-11-18T21:26:42.337Z,10.95
2022-11-18T21:29:10.485Z,10.24
2022-11-18T21:31:38.067Z,10.93
2022-11-18T21:34:05.520Z,11.48
2022-11-18T21:36:32.628Z,10.71
2022-11-18T21:39:00.521Z,9.98
2022-11-18T21:41:27.991Z,10.60
2022-11-18T21:44:05.576Z,10.07
2022-11-18T21:46:33.928Z,10.36
2022-11-18T21:49:01.172Z,10.26
2022-11-18T21:51:28.364Z,10.01
2022-11-18T21:53:58.064Z,10.01
2022-11-18T21:56:25.626Z,10.42
2022-11-18T21:58:52.875Z,10.79
2022-11-18T22:01:21.116Z,10.05
2022-11-18T22:03:54.781Z,9.62
2022-11-18T22:06:23.205Z,9.34
2022-11-18T22:08:50.604Z,9.54
2022-11-18T22:11:17.730Z,10.25
2022-11-18T22:13:44.837Z,10.23
2022-11-18T22:16:13.243Z,9.84
2022-11-18T22:18:40.994Z,10.63
2022-11-18T22:21:10.156Z,9.11
2022-11-18T22:23:37.524Z,8.48
2022-11-18T22:26:07.669Z,9.19
2022-11-18T22:28:35.265Z,8.56
2022-11-18T22:31:03.498Z,9.86
2022-11-18T22:33:31.179Z,9.47
2022-11-18T22:36:08.783Z,10.16
2022-11-18T22:38:36.161Z,9.84
2022-11-18T22:41:04.264Z,10.00
2022-11-18T22:43:31.611Z,9.65
2022-11-18T22:46:06.674Z,9.64
2022-11-18T22:48:34.358Z,9.83
2022-11-18T22:51:02.532Z,8.93
2022-11-18T22:53:29.941Z,9.09
2022-11-18T22:56:07.043Z,9.44
2022-11-18T22:58:34.447Z,8.66
2022-11-18T23:01:08.623Z,9.18
2022-11-18T23:03:36.030Z,9.30
2022-11-18T23:06:21.460Z,8.80
2022-11-18T23:08:48.834Z,8.86
2022-11-18T23:11:39.432Z,9.03
2022-11-18T23:14:07.627Z,9.12
2022-11-18T23:16:35.841Z,9.95
2022-11-18T23:19:03.714Z,9.72
2022-11-18T23:21:31.127Z,8.98
2022-11-18T23:23:58.226Z,8.95
2022-11-18T23:26:25.869Z,10.09
2022-11-18T23:28:53.272Z,9.22
2022-11-18T23:31:22.828Z,9.25
2022-11-18T23:33:49.965Z,9.32
2022-11-18T23:36:18.061Z,9.75
2022-11-18T23:38:45.224Z,8.71
2022-11-18T23:41:14.435Z,8.47
2022-11-18T23:43:41.989Z,8.81
2022-11-18T23:46:09.476Z,8.81
2022-11-18T23:48:37.551Z,9.44
2022-11-18T23:51:05.925Z,10.10
2022-11-18T23:53:36.172Z,9.35
2022-11-18T23:56:10.336Z,8.62
2022-11-18T23:58:38.113Z,9.19
